sensor_id;sensor_type;location;lat;lon;timestamp;P1;durP1;ratioP1;P2;durP2;ratioP2
57071;SDS011;42956;51.366;11.298;2024-03-06T00:00:54;29.02;;;18.85;;
57071;SDS011;42956;51.366;11.298;2024-03-06T00:03:24;31.75;;;18.27;;
57071;SDS011;42956;51.366;11.298;2024-03-06T00:05:54;33.28;;;18.13;;
57071;SDS011;42956;51.366;11.298;2024-03-06T00:08:24;28.48;;;18.88;;
57071;SDS011;42956;51.366;11.298;2024-03-06T00:10:57;28.75;;;18.73;;
57071;SDS011;42956;51.366;11.298;2024-03-06T00:13:27;27.05;;;17.60;;
57071;SDS011;42956;51.366;11.298;2024-03-06T00:15:57;30.58;;;18.60;;
57071;SDS011;42956;51.366;11.298;2024-03-06T00:18:27;37.83;;;18.85;;
57071;SDS011;42956;51.366;11.298;2024-03-06T00:20:57;32.55;;;17.48;;
57071;SDS011;42956;51.366;11.298;2024-03-06T00:23:27;30.98;;;17.45;;
57071;SDS011;42956;51.366;11.298;2024-03-06T00:26:00;31.33;;;17.92;;
57071;SDS011;42956;51.366;11.298;2024-03-06T00:28:30;31.13;;;18.33;;
57071;SDS011;42956;51.366;11.298;2024-03-06T00:31:00;27.17;;;17.52;;
57071;SDS011;42956;51.366;11.298;2024-03-06T00:33:30;30.83;;;18.02;;
57071;SDS011;42956;51.366;11.298;2024-03-06T00:36:00;31.38;;;17.13;;
57071;SDS011;42956;51.366;11.298;2024-03-06T00:38:30;30.95;;;16.95;;
57071;SDS011;42956;51.366;11.298;2024-03-06T00:41:02;25.13;;;17.05;;
57071;SDS011;42956;51.366;11.298;2024-03-06T00:46:02;27.33;;;16.77;;
57071;SDS011;42956;51.366;11.298;2024-03-06T00:48:32;25.50;;;15.77;;
57071;SDS011;42956;51.366;11.298;2024-03-06T00:51:06;38.13;;;16.50;;
57071;SDS011;42956;51.366;11.298;2024-03-06T00:53:36;29.10;;;15.05;;
57071;SDS011;42956;51.366;11.298;2024-03-06T00:56:09;26.23;;;16.38;;
57071;SDS011;42956;51.366;11.298;2024-03-06T01:01:08;30.58;;;16.50;;
57071;SDS011;42956;51.366;11.298;2024-03-06T01:03:39;26.13;;;15.82;;
57071;SDS011;42956;51.366;11.298;2024-03-06T01:06:09;24.63;;;16.00;;
57071;SDS011;42956;51.366;11.298;2024-03-06T01:08:38;25.23;;;15.93;;
57071;SDS011;42956;51.366;11.298;2024-03-06T01:11:11;24.92;;;16.05;;
57071;SDS011;42956;51.366;11.298;2024-03-06T01:13:41;27.38;;;15.73;;
57071;SDS011;42956;51.366;11.298;2024-03-06T01:16:11;23.92;;;16.48;;
57071;SDS011;42956;51.366;11.298;2024-03-06T01:18:41;24.55;;;15.48;;
57071;SDS011;42956;51.366;11.298;2024-03-06T01:21:11;35.58;;;16.23;;
57071;SDS011;42956;51.366;11.298;2024-03-06T01:23:41;24.60;;;15.98;;
57071;SDS011;42956;51.366;11.298;2024-03-06T01:26:13;24.05;;;15.32;;
57071;SDS011;42956;51.366;11.298;2024-03-06T01:31:13;23.63;;;14.73;;
57071;SDS011;42956;51.366;11.298;2024-03-06T01:33:43;28.42;;;15.85;;
57071;SDS011;42956;51.366;11.298;2024-03-06T01:36:13;26.38;;;17.13;;
57071;SDS011;42956;51.366;11.298;2024-03-06T01:38:43;26.40;;;15.93;;
57071;SDS011;42956;51.366;11.298;2024-03-06T01:41:16;31.45;;;17.27;;
57071;SDS011;42956;51.366;11.298;2024-03-06T01:43:46;27.42;;;16.83;;
57071;SDS011;42956;51.366;11.298;2024-03-06T01:46:17;23.98;;;14.90;;
57071;SDS011;42956;51.366;11.298;2024-03-06T01:48:47;22.80;;;16.77;;
57071;SDS011;42956;51.366;11.298;2024-03-06T01:51:17;33.45;;;17.55;;
57071;SDS011;42956;51.366;11.298;2024-03-06T01:53:47;28.42;;;15.48;;
57071;SDS011;42956;51.366;11.298;2024-03-06T01:56:19;26.00;;;15.93;;
57071;SDS011;42956;51.366;11.298;2024-03-06T01:58:49;25.92;;;17.17;;
57071;SDS011;42956;51.366;11.298;2024-03-06T02:01:22;27.98;;;17.05;;
57071;SDS011;42956;51.366;11.298;2024-03-06T02:03:52;26.10;;;16.98;;
57071;SDS011;42956;51.366;11.298;2024-03-06T02:06:23;25.95;;;16.55;;
57071;SDS011;42956;51.366;11.298;2024-03-06T02:08:53;24.10;;;15.30;;
57071;SDS011;42956;51.366;11.298;2024-03-06T02:11:26;27.67;;;17.13;;
57071;SDS011;42956;51.366;11.298;2024-03-06T02:13:56;29.50;;;16.88;;
57071;SDS011;42956;51.366;11.298;2024-03-06T02:16:26;25.00;;;16.95;;
57071;SDS011;42956;51.366;11.298;2024-03-06T02:18:57;25.20;;;16.00;;
57071;SDS011;42956;51.366;11.298;2024-03-06T02:21:30;23.88;;;15.93;;
57071;SDS011;42956;51.366;11.298;2024-03-06T02:24:00;24.58;;;16.38;;
57071;SDS011;42956;51.366;11.298;2024-03-06T02:26:30;27.13;;;16.73;;
57071;SDS011;42956;51.366;11.298;2024-03-06T02:29:00;25.65;;;16.35;;
57071;SDS011;42956;51.366;11.298;2024-03-06T02:31:33;28.55;;;16.40;;
57071;SDS011;42956;51.366;11.298;2024-03-06T02:34:02;28.08;;;17.80;;
57071;SDS011;42956;51.366;11.298;2024-03-06T02:36:36;29.73;;;16.42;;
57071;SDS011;42956;51.366;11.298;2024-03-06T02:39:06;35.92;;;18.13;;
57071;SDS011;42956;51.366;11.298;2024-03-06T02:41:36;31.20;;;17.23;;
57071;SDS011;42956;51.366;11.298;2024-03-06T02:44:06;28.55;;;17.33;;
57071;SDS011;42956;51.366;11.298;2024-03-06T02:46:37;32.80;;;17.05;;
57071;SDS011;42956;51.366;11.298;2024-03-06T02:49:06;26.27;;;17.15;;
57071;SDS011;42956;51.366;11.298;2024-03-06T02:51:39;31.00;;;16.85;;
57071;SDS011;42956;51.366;11.298;2024-03-06T02:54:09;33.58;;;18.42;;
57071;SDS011;42956;51.366;11.298;2024-03-06T02:56:39;31.17;;;17.95;;
57071;SDS011;42956;51.366;11.298;2024-03-06T02:59:09;26.65;;;17.27;;
57071;SDS011;42956;51.366;11.298;2024-03-06T03:01:39;31.10;;;17.77;;
57071;SDS011;42956;51.366;11.298;2024-03-06T03:04:09;27.23;;;16.58;;
57071;SDS011;42956;51.366;11.298;2024-03-06T03:06:42;29.00;;;17.65;;
57071;SDS011;42956;51.366;11.298;2024-03-06T03:09:12;30.13;;;19.02;;
57071;SDS011;42956;51.366;11.298;2024-03-06T03:11:42;28.42;;;18.30;;
57071;SDS011;42956;51.366;11.298;2024-03-06T03:14:12;26.65;;;17.38;;
57071;SDS011;42956;51.366;11.298;2024-03-06T03:16:42;25.73;;;17.25;;
57071;SDS011;42956;51.366;11.298;2024-03-06T03:19:12;34.60;;;19.10;;
57071;SDS011;42956;51.366;11.298;2024-03-06T03:21:46;28.60;;;18.38;;
57071;SDS011;42956;51.366;11.298;2024-03-06T03:24:16;32.85;;;18.10;;
57071;SDS011;42956;51.366;11.298;2024-03-06T03:26:47;27.23;;;18.77;;
57071;SDS011;42956;51.366;11.298;2024-03-06T03:29:17;28.02;;;19.02;;
57071;SDS011;42956;51.366;11.298;2024-03-06T03:31:48;25.70;;;16.80;;
57071;SDS011;42956;51.366;11.298;2024-03-06T03:34:18;35.03;;;19.08;;
57071;SDS011;42956;51.366;11.298;2024-03-06T03:36:50;30.27;;;18.02;;
57071;SDS011;42956;51.366;11.298;2024-03-06T03:39:20;28.30;;;19.15;;
57071;SDS011;42956;51.366;11.298;2024-03-06T03:41:51;30.05;;;17.00;;
57071;SDS011;42956;51.366;11.298;2024-03-06T03:44:21;26.75;;;17.35;;
57071;SDS011;42956;51.366;11.298;2024-03-06T03:46:51;27.42;;;18.33;;
57071;SDS011;42956;51.366;11.298;2024-03-06T03:49:18;31.10;;;18.95;;
57071;SDS011;42956;51.366;11.298;2024-03-06T03:51:50;30.80;;;19.63;;
57071;SDS011;42956;51.366;11.298;2024-03-06T03:54:20;31.23;;;20.20;;
57071;SDS011;42956;51.366;11.298;2024-03-06T03:56:50;31.65;;;19.70;;
57071;SDS011;42956;51.366;11.298;2024-03-06T03:59:20;31.58;;;19.40;;
57071;SDS011;42956;51.366;11.298;2024-03-06T04:01:50;31.30;;;18.10;;
57071;SDS011;42956;51.366;11.298;2024-03-06T04:04:20;30.17;;;18.95;;
57071;SDS011;42956;51.366;11.298;2024-03-06T04:06:53;30.00;;;19.50;;
57071;SDS011;42956;51.366;11.298;2024-03-06T04:09:26;31.80;;;18.75;;
57071;SDS011;42956;51.366;11.298;2024-03-06T04:11:56;26.88;;;19.48;;
57071;SDS011;42956;51.366;11.298;2024-03-06T04:14:26;26.20;;;18.10;;
57071;SDS011;42956;51.366;11.298;2024-03-06T04:16:57;30.40;;;18.67;;
57071;SDS011;42956;51.366;11.298;2024-03-06T04:19:27;37.33;;;19.83;;
57071;SDS011;42956;51.366;11.298;2024-03-06T04:21:59;42.28;;;20.55;;
57071;SDS011;42956;51.366;11.298;2024-03-06T04:24:29;26.90;;;18.73;;
57071;SDS011;42956;51.366;11.298;2024-03-06T04:26:59;32.22;;;20.08;;
57071;SDS011;42956;51.366;11.298;2024-03-06T04:29:29;33.40;;;20.27;;
57071;SDS011;42956;51.366;11.298;2024-03-06T04:31:59;33.42;;;19.67;;
57071;SDS011;42956;51.366;11.298;2024-03-06T04:34:29;30.35;;;19.33;;
57071;SDS011;42956;51.366;11.298;2024-03-06T04:37:03;34.42;;;21.27;;
57071;SDS011;42956;51.366;11.298;2024-03-06T04:39:32;31.05;;;20.13;;
57071;SDS011;42956;51.366;11.298;2024-03-06T04:42:03;32.75;;;20.25;;
57071;SDS011;42956;51.366;11.298;2024-03-06T04:44:33;30.65;;;20.73;;
57071;SDS011;42956;51.366;11.298;2024-03-06T04:47:03;39.65;;;21.25;;
57071;SDS011;42956;51.366;11.298;2024-03-06T04:49:33;35.63;;;19.48;;
57071;SDS011;42956;51.366;11.298;2024-03-06T04:52:06;33.80;;;21.08;;
57071;SDS011;42956;51.366;11.298;2024-03-06T04:54:36;34.72;;;20.42;;
57071;SDS011;42956;51.366;11.298;2024-03-06T04:57:06;29.48;;;19.88;;
57071;SDS011;42956;51.366;11.298;2024-03-06T04:59:36;29.00;;;19.13;;
57071;SDS011;42956;51.366;11.298;2024-03-06T05:02:06;31.90;;;19.75;;
57071;SDS011;42956;51.366;11.298;2024-03-06T05:04:36;30.98;;;20.10;;
57071;SDS011;42956;51.366;11.298;2024-03-06T05:07:22;39.63;;;19.75;;
57071;SDS011;42956;51.366;11.298;2024-03-06T05:10:07;32.53;;;20.58;;
57071;SDS011;42956;51.366;11.298;2024-03-06T05:12:51;30.90;;;19.88;;
57071;SDS011;42956;51.366;11.298;2024-03-06T05:15:34;36.13;;;20.20;;
57071;SDS011;42956;51.366;11.298;2024-03-06T05:18:19;33.05;;;22.48;;
57071;SDS011;42956;51.366;11.298;2024-03-06T05:21:03;30.60;;;20.48;;
57071;SDS011;42956;51.366;11.298;2024-03-06T05:23:50;35.38;;;21.90;;
57071;SDS011;42956;51.366;11.298;2024-03-06T05:26:34;31.35;;;21.38;;
57071;SDS011;42956;51.366;11.298;2024-03-06T05:29:18;32.58;;;21.08;;
57071;SDS011;42956;51.366;11.298;2024-03-06T05:32:02;34.95;;;22.30;;
57071;SDS011;42956;51.366;11.298;2024-03-06T05:34:47;45.97;;;21.58;;
57071;SDS011;42956;51.366;11.298;2024-03-06T05:37:31;35.03;;;21.85;;
57071;SDS011;42956;51.366;11.298;2024-03-06T05:40:18;36.25;;;22.55;;
57071;SDS011;42956;51.366;11.298;2024-03-06T05:43:01;38.83;;;23.45;;
57071;SDS011;42956;51.366;11.298;2024-03-06T05:45:45;40.25;;;24.00;;
57071;SDS011;42956;51.366;11.298;2024-03-06T05:48:29;45.30;;;27.10;;
57071;SDS011;42956;51.366;11.298;2024-03-06T05:51:14;42.97;;;25.75;;
57071;SDS011;42956;51.366;11.298;2024-03-06T05:53:57;46.78;;;26.58;;
57071;SDS011;42956;51.366;11.298;2024-03-06T05:56:44;50.72;;;29.08;;
57071;SDS011;42956;51.366;11.298;2024-03-06T05:59:27;40.40;;;25.25;;
57071;SDS011;42956;51.366;11.298;2024-03-06T06:01:58;37.65;;;25.23;;
57071;SDS011;42956;51.366;11.298;2024-03-06T06:04:27;52.38;;;25.35;;
57071;SDS011;42956;51.366;11.298;2024-03-06T06:07:06;36.85;;;22.70;;
57071;SDS011;42956;51.366;11.298;2024-03-06T06:09:36;46.33;;;25.00;;
57071;SDS011;42956;51.366;11.298;2024-03-06T06:12:10;38.58;;;24.30;;
57071;SDS011;42956;51.366;11.298;2024-03-06T06:14:40;47.08;;;24.17;;
57071;SDS011;42956;51.366;11.298;2024-03-06T06:17:09;36.95;;;23.98;;
57071;SDS011;42956;51.366;11.298;2024-03-06T06:19:41;42.00;;;25.58;;
57071;SDS011;42956;51.366;11.298;2024-03-06T06:22:11;39.95;;;24.33;;
57071;SDS011;42956;51.366;11.298;2024-03-06T06:24:41;42.78;;;24.38;;
57071;SDS011;42956;51.366;11.298;2024-03-06T06:27:16;39.83;;;25.83;;
57071;SDS011;42956;51.366;11.298;2024-03-06T06:29:46;41.50;;;25.05;;
57071;SDS011;42956;51.366;11.298;2024-03-06T06:32:16;47.45;;;25.63;;
57071;SDS011;42956;51.366;11.298;2024-03-06T06:34:45;41.70;;;25.15;;
57071;SDS011;42956;51.366;11.298;2024-03-06T06:37:16;38.70;;;24.85;;
57071;SDS011;42956;51.366;11.298;2024-03-06T06:39:49;45.45;;;26.38;;
57071;SDS011;42956;51.366;11.298;2024-03-06T06:42:22;39.83;;;25.05;;
57071;SDS011;42956;51.366;11.298;2024-03-06T06:44:51;40.92;;;25.95;;
57071;SDS011;42956;51.366;11.298;2024-03-06T06:47:21;49.35;;;28.02;;
57071;SDS011;42956;51.366;11.298;2024-03-06T06:49:51;48.95;;;25.27;;
57071;SDS011;42956;51.366;11.298;2024-03-06T06:52:21;42.83;;;26.67;;
57071;SDS011;42956;51.366;11.298;2024-03-06T06:54:54;46.30;;;27.20;;
57071;SDS011;42956;51.366;11.298;2024-03-06T06:57:27;45.28;;;27.50;;
57071;SDS011;42956;51.366;11.298;2024-03-06T06:59:57;49.08;;;27.20;;
57071;SDS011;42956;51.366;11.298;2024-03-06T07:02:26;44.10;;;27.15;;
57071;SDS011;42956;51.366;11.298;2024-03-06T07:04:56;43.30;;;26.83;;
57071;SDS011;42956;51.366;11.298;2024-03-06T07:07:27;46.58;;;28.08;;
57071;SDS011;42956;51.366;11.298;2024-03-06T07:09:56;42.22;;;27.13;;
57071;SDS011;42956;51.366;11.298;2024-03-06T07:12:29;52.63;;;30.23;;
57071;SDS011;42956;51.366;11.298;2024-03-06T07:14:59;41.80;;;27.63;;
57071;SDS011;42956;51.366;11.298;2024-03-06T07:17:29;50.28;;;28.00;;
57071;SDS011;42956;51.366;11.298;2024-03-06T07:19:59;50.53;;;28.67;;
57071;SDS011;42956;51.366;11.298;2024-03-06T07:22:29;48.08;;;28.45;;
57071;SDS011;42956;51.366;11.298;2024-03-06T07:25:01;51.80;;;28.48;;
57071;SDS011;42956;51.366;11.298;2024-03-06T07:27:35;50.75;;;30.15;;
57071;SDS011;42956;51.366;11.298;2024-03-06T07:30:05;50.65;;;29.50;;
57071;SDS011;42956;51.366;11.298;2024-03-06T07:32:38;47.25;;;28.67;;
57071;SDS011;42956;51.366;11.298;2024-03-06T07:35:08;50.15;;;31.48;;
57071;SDS011;42956;51.366;11.298;2024-03-06T07:37:39;46.60;;;29.10;;
57071;SDS011;42956;51.366;11.298;2024-03-06T07:40:11;56.85;;;29.20;;
57071;SDS011;42956;51.366;11.298;2024-03-06T07:42:44;57.95;;;31.65;;
57071;SDS011;42956;51.366;11.298;2024-03-06T07:47:44;45.05;;;28.73;;
57071;SDS011;42956;51.366;11.298;2024-03-06T07:50:15;57.20;;;30.92;;
57071;SDS011;42956;51.366;11.298;2024-03-06T07:52:46;50.67;;;30.38;;
57071;SDS011;42956;51.366;11.298;2024-03-06T07:55:17;48.15;;;28.63;;
57071;SDS011;42956;51.366;11.298;2024-03-06T07:57:51;50.53;;;30.13;;
57071;SDS011;42956;51.366;11.298;2024-03-06T08:00:22;47.95;;;30.55;;
57071;SDS011;42956;51.366;11.298;2024-03-06T08:02:54;48.60;;;30.92;;
57071;SDS011;42956;51.366;11.298;2024-03-06T08:05:23;50.38;;;31.35;;
57071;SDS011;42956;51.366;11.298;2024-03-06T08:07:53;49.15;;;31.23;;
57071;SDS011;42956;51.366;11.298;2024-03-06T08:10:23;59.10;;;31.80;;
57071;SDS011;42956;51.366;11.298;2024-03-06T08:12:56;47.63;;;30.35;;
57071;SDS011;42956;51.366;11.298;2024-03-06T08:15:25;49.97;;;31.05;;
57071;SDS011;42956;51.366;11.298;2024-03-06T08:17:56;48.35;;;30.52;;
57071;SDS011;42956;51.366;11.298;2024-03-06T08:20:26;52.95;;;32.17;;
57071;SDS011;42956;51.366;11.298;2024-03-06T08:22:56;49.80;;;31.05;;
57071;SDS011;42956;51.366;11.298;2024-03-06T08:25:26;52.63;;;33.05;;
57071;SDS011;42956;51.366;11.298;2024-03-06T08:28:02;52.17;;;32.15;;
57071;SDS011;42956;51.366;11.298;2024-03-06T08:30:32;49.15;;;31.60;;
57071;SDS011;42956;51.366;11.298;2024-03-06T08:33:02;56.38;;;31.98;;
57071;SDS011;42956;51.366;11.298;2024-03-06T08:35:32;52.85;;;33.22;;
57071;SDS011;42956;51.366;11.298;2024-03-06T08:38:02;59.88;;;33.97;;
57071;SDS011;42956;51.366;11.298;2024-03-06T08:40:34;55.28;;;34.10;;
57071;SDS011;42956;51.366;11.298;2024-03-06T08:43:09;52.70;;;34.35;;
57071;SDS011;42956;51.366;11.298;2024-03-06T08:45:39;54.33;;;35.25;;
57071;SDS011;42956;51.366;11.298;2024-03-06T08:48:10;56.45;;;33.75;;
57071;SDS011;42956;51.366;11.298;2024-03-06T08:50:39;50.38;;;33.22;;
57071;SDS011;42956;51.366;11.298;2024-03-06T08:53:09;55.35;;;34.50;;
57071;SDS011;42956;51.366;11.298;2024-03-06T08:55:41;52.65;;;34.67;;
57071;SDS011;42956;51.366;11.298;2024-03-06T08:58:13;61.92;;;35.20;;
57071;SDS011;42956;51.366;11.298;2024-03-06T09:00:43;62.72;;;37.28;;
57071;SDS011;42956;51.366;11.298;2024-03-06T09:03:14;57.72;;;33.58;;
57071;SDS011;42956;51.366;11.298;2024-03-06T09:05:44;55.72;;;35.25;;
57071;SDS011;42956;51.366;11.298;2024-03-06T09:08:13;61.10;;;35.92;;
57071;SDS011;42956;51.366;11.298;2024-03-06T09:10:43;56.75;;;35.20;;
57071;SDS011;42956;51.366;11.298;2024-03-06T09:13:19;59.10;;;36.58;;
57071;SDS011;42956;51.366;11.298;2024-03-06T09:15:49;63.28;;;37.33;;
57071;SDS011;42956;51.366;11.298;2024-03-06T09:18:19;54.90;;;37.15;;
57071;SDS011;42956;51.366;11.298;2024-03-06T09:20:49;62.65;;;40.20;;
57071;SDS011;42956;51.366;11.298;2024-03-06T09:23:19;61.20;;;39.22;;
57071;SDS011;42956;51.366;11.298;2024-03-06T09:25:48;58.78;;;37.83;;
57071;SDS011;42956;51.366;11.298;2024-03-06T09:28:21;56.15;;;37.08;;
57071;SDS011;42956;51.366;11.298;2024-03-06T09:30:51;58.80;;;37.58;;
57071;SDS011;42956;51.366;11.298;2024-03-06T09:33:21;61.78;;;38.08;;
57071;SDS011;42956;51.366;11.298;2024-03-06T09:35:51;52.85;;;37.25;;
57071;SDS011;42956;51.366;11.298;2024-03-06T09:38:23;55.53;;;37.00;;
57071;SDS011;42956;51.366;11.298;2024-03-06T09:40:55;56.78;;;34.72;;
57071;SDS011;42956;51.366;11.298;2024-03-06T09:43:28;57.25;;;35.35;;
57071;SDS011;42956;51.366;11.298;2024-03-06T09:45:58;54.17;;;33.20;;
57071;SDS011;42956;51.366;11.298;2024-03-06T09:48:29;44.97;;;31.77;;
57071;SDS011;42956;51.366;11.298;2024-03-06T09:51:01;42.40;;;29.65;;
57071;SDS011;42956;51.366;11.298;2024-03-06T09:53:31;45.08;;;29.27;;
57071;SDS011;42956;51.366;11.298;2024-03-06T09:56:02;43.75;;;29.02;;
57071;SDS011;42956;51.366;11.298;2024-03-06T09:58:35;40.40;;;28.42;;
57071;SDS011;42956;51.366;11.298;2024-03-06T10:01:05;39.65;;;26.15;;
57071;SDS011;42956;51.366;11.298;2024-03-06T10:03:36;40.72;;;26.95;;
57071;SDS011;42956;51.366;11.298;2024-03-06T10:06:07;40.88;;;25.77;;
57071;SDS011;42956;51.366;11.298;2024-03-06T10:08:41;40.00;;;26.73;;
57071;SDS011;42956;51.366;11.298;2024-03-06T10:11:13;43.03;;;27.33;;
57071;SDS011;42956;51.366;11.298;2024-03-06T10:13:47;37.65;;;27.08;;
57071;SDS011;42956;51.366;11.298;2024-03-06T10:16:17;39.85;;;27.00;;
57071;SDS011;42956;51.366;11.298;2024-03-06T10:18:47;45.72;;;26.98;;
57071;SDS011;42956;51.366;11.298;2024-03-06T10:21:25;42.55;;;27.10;;
57071;SDS011;42956;51.366;11.298;2024-03-06T10:23:59;53.75;;;28.63;;
57071;SDS011;42956;51.366;11.298;2024-03-06T10:26:30;43.30;;;27.48;;
57071;SDS011;42956;51.366;11.298;2024-03-06T10:29:02;44.55;;;28.50;;
57071;SDS011;42956;51.366;11.298;2024-03-06T10:31:32;46.28;;;27.73;;
57071;SDS011;42956;51.366;11.298;2024-03-06T10:34:02;46.40;;;26.77;;
57071;SDS011;42956;51.366;11.298;2024-03-06T10:36:33;48.70;;;28.45;;
57071;SDS011;42956;51.366;11.298;2024-03-06T10:39:04;48.53;;;29.70;;
57071;SDS011;42956;51.366;11.298;2024-03-06T10:41:35;46.10;;;28.10;;
57071;SDS011;42956;51.366;11.298;2024-03-06T10:44:08;43.13;;;29.58;;
57071;SDS011;42956;51.366;11.298;2024-03-06T10:46:43;48.72;;;29.50;;
57071;SDS011;42956;51.366;11.298;2024-03-06T10:49:14;48.50;;;28.20;;
57071;SDS011;42956;51.366;11.298;2024-03-06T10:51:44;44.50;;;28.20;;
57071;SDS011;42956;51.366;11.298;2024-03-06T10:54:16;42.40;;;26.88;;
57071;SDS011;42956;51.366;11.298;2024-03-06T10:56:46;40.65;;;25.85;;
57071;SDS011;42956;51.366;11.298;2024-03-06T10:59:19;36.15;;;26.80;;
57071;SDS011;42956;51.366;11.298;2024-03-06T11:01:52;36.88;;;26.00;;
57071;SDS011;42956;51.366;11.298;2024-03-06T11:04:24;45.75;;;26.95;;
57071;SDS011;42956;51.366;11.298;2024-03-06T11:06:55;45.13;;;28.15;;
57071;SDS011;42956;51.366;11.298;2024-03-06T11:09:26;39.67;;;26.15;;
57071;SDS011;42956;51.366;11.298;2024-03-06T11:11:57;41.33;;;28.13;;
57071;SDS011;42956;51.366;11.298;2024-03-06T11:14:30;47.78;;;26.58;;
57071;SDS011;42956;51.366;11.298;2024-03-06T11:17:02;53.65;;;27.63;;
57071;SDS011;42956;51.366;11.298;2024-03-06T11:20:07;45.70;;;27.85;;
57071;SDS011;42956;51.366;11.298;2024-03-06T11:28:06;43.72;;;29.15;;
57071;SDS011;42956;51.366;11.298;2024-03-06T11:30:41;45.72;;;28.77;;
57071;SDS011;42956;51.366;11.298;2024-03-06T11:33:14;48.03;;;29.73;;
57071;SDS011;42956;51.366;11.298;2024-03-06T11:38:30;48.08;;;29.70;;
57071;SDS011;42956;51.366;11.298;2024-03-06T11:41:00;41.13;;;29.75;;
57071;SDS011;42956;51.366;11.298;2024-03-06T11:43:30;46.38;;;31.08;;
57071;SDS011;42956;51.366;11.298;2024-03-06T11:46:10;44.15;;;30.73;;
57071;SDS011;42956;51.366;11.298;2024-03-06T11:48:40;50.67;;;33.40;;
57071;SDS011;42956;51.366;11.298;2024-03-06T11:51:10;47.95;;;33.38;;
57071;SDS011;42956;51.366;11.298;2024-03-06T11:53:40;48.47;;;32.50;;
57071;SDS011;42956;51.366;11.298;2024-03-06T11:56:12;54.15;;;33.63;;
57071;SDS011;42956;51.366;11.298;2024-03-06T11:58:41;46.38;;;32.65;;
57071;SDS011;42956;51.366;11.298;2024-03-06T12:01:18;48.53;;;33.60;;
57071;SDS011;42956;51.366;11.298;2024-03-06T12:03:48;45.10;;;32.60;;
57071;SDS011;42956;51.366;11.298;2024-03-06T12:06:17;52.63;;;33.95;;
57071;SDS011;42956;51.366;11.298;2024-03-06T12:08:49;46.00;;;31.95;;
57071;SDS011;42956;51.366;11.298;2024-03-06T12:11:19;46.35;;;30.90;;
57071;SDS011;42956;51.366;11.298;2024-03-06T12:13:50;42.38;;;29.33;;
57071;SDS011;42956;51.366;11.298;2024-03-06T12:16:23;47.33;;;32.60;;
57071;SDS011;42956;51.366;11.298;2024-03-06T12:18:54;47.75;;;33.30;;
57071;SDS011;42956;51.366;11.298;2024-03-06T12:21:27;55.63;;;36.17;;
57071;SDS011;42956;51.366;11.298;2024-03-06T12:26:27;54.17;;;34.70;;
57071;SDS011;42956;51.366;11.298;2024-03-06T12:29:04;52.17;;;34.70;;
57071;SDS011;42956;51.366;11.298;2024-03-06T12:31:38;45.83;;;33.10;;
57071;SDS011;42956;51.366;11.298;2024-03-06T12:34:13;49.58;;;32.92;;
57071;SDS011;42956;51.366;11.298;2024-03-06T12:36:44;45.03;;;32.85;;
57071;SDS011;42956;51.366;11.298;2024-03-06T12:39:15;47.65;;;33.67;;
57071;SDS011;42956;51.366;11.298;2024-03-06T12:41:48;54.22;;;32.22;;
57071;SDS011;42956;51.366;11.298;2024-03-06T12:44:19;44.78;;;32.05;;
57071;SDS011;42956;51.366;11.298;2024-03-06T12:46:52;46.92;;;29.65;;
57071;SDS011;42956;51.366;11.298;2024-03-06T12:49:21;46.75;;;31.02;;
57071;SDS011;42956;51.366;11.298;2024-03-06T12:51:51;46.88;;;30.80;;
57071;SDS011;42956;51.366;11.298;2024-03-06T12:54:21;43.15;;;28.50;;
57071;SDS011;42956;51.366;11.298;2024-03-06T12:56:54;39.05;;;28.25;;
57071;SDS011;42956;51.366;11.298;2024-03-06T12:59:24;48.72;;;27.52;;
57071;SDS011;42956;51.366;11.298;2024-03-06T13:01:57;44.00;;;31.27;;
57071;SDS011;42956;51.366;11.298;2024-03-06T13:04:27;41.80;;;28.63;;
57071;SDS011;42956;51.366;11.298;2024-03-06T13:06:57;38.45;;;28.90;;
57071;SDS011;42956;51.366;11.298;2024-03-06T13:09:27;41.65;;;28.45;;
57071;SDS011;42956;51.366;11.298;2024-03-06T13:11:56;41.42;;;28.45;;
57071;SDS011;42956;51.366;11.298;2024-03-06T13:14:27;41.42;;;29.02;;
57071;SDS011;42956;51.366;11.298;2024-03-06T13:17:00;42.33;;;28.00;;
57071;SDS011;42956;51.366;11.298;2024-03-06T13:19:30;55.90;;;28.52;;
57071;SDS011;42956;51.366;11.298;2024-03-06T13:22:00;40.38;;;29.55;;
57071;SDS011;42956;51.366;11.298;2024-03-06T13:24:34;45.33;;;28.92;;
57071;SDS011;42956;51.366;11.298;2024-03-06T13:27:10;44.10;;;30.83;;
57071;SDS011;42956;51.366;11.298;2024-03-06T13:29:40;46.17;;;29.88;;
57071;SDS011;42956;51.366;11.298;2024-03-06T13:32:12;42.13;;;29.15;;
57071;SDS011;42956;51.366;11.298;2024-03-06T13:34:43;38.50;;;28.00;;
57071;SDS011;42956;51.366;11.298;2024-03-06T13:37:14;43.35;;;29.45;;
57071;SDS011;42956;51.366;11.298;2024-03-06T13:39:44;42.13;;;29.52;;
57071;SDS011;42956;51.366;11.298;2024-03-06T13:42:15;49.45;;;29.30;;
57071;SDS011;42956;51.366;11.298;2024-03-06T13:44:45;49.38;;;30.30;;
57071;SDS011;42956;51.366;11.298;2024-03-06T13:47:17;43.17;;;29.58;;
57071;SDS011;42956;51.366;11.298;2024-03-06T13:49:47;47.65;;;30.95;;
57071;SDS011;42956;51.366;11.298;2024-03-06T13:52:17;42.60;;;30.50;;
57071;SDS011;42956;51.366;11.298;2024-03-06T13:54:48;47.17;;;32.15;;
57071;SDS011;42956;51.366;11.298;2024-03-06T13:57:17;51.88;;;32.13;;
57071;SDS011;42956;51.366;11.298;2024-03-06T13:59:47;44.70;;;30.23;;
57071;SDS011;42956;51.366;11.298;2024-03-06T14:02:20;42.20;;;31.23;;
57071;SDS011;42956;51.366;11.298;2024-03-06T14:04:50;54.92;;;31.33;;
57071;SDS011;42956;51.366;11.298;2024-03-06T14:07:20;44.90;;;31.38;;
57071;SDS011;42956;51.366;11.298;2024-03-06T14:09:50;47.97;;;30.50;;
57071;SDS011;42956;51.366;11.298;2024-03-06T14:12:20;42.00;;;30.42;;
57071;SDS011;42956;51.366;11.298;2024-03-06T14:14:50;44.17;;;30.83;;
57071;SDS011;42956;51.366;11.298;2024-03-06T14:17:23;45.92;;;30.02;;
57071;SDS011;42956;51.366;11.298;2024-03-06T14:19:53;51.60;;;28.48;;
57071;SDS011;42956;51.366;11.298;2024-03-06T14:22:23;47.88;;;29.23;;
57071;SDS011;42956;51.366;11.298;2024-03-06T14:24:53;42.40;;;29.10;;
57071;SDS011;42956;51.366;11.298;2024-03-06T14:27:23;47.60;;;31.60;;
57071;SDS011;42956;51.366;11.298;2024-03-06T14:29:53;38.92;;;27.73;;
57071;SDS011;42956;51.366;11.298;2024-03-06T14:32:26;42.72;;;29.52;;
57071;SDS011;42956;51.366;11.298;2024-03-06T14:34:55;46.03;;;30.05;;
57071;SDS011;42956;51.366;11.298;2024-03-06T14:37:25;42.85;;;30.45;;
57071;SDS011;42956;51.366;11.298;2024-03-06T14:39:55;49.30;;;30.98;;
57071;SDS011;42956;51.366;11.298;2024-03-06T14:42:30;45.45;;;31.48;;
57071;SDS011;42956;51.366;11.298;2024-03-06T14:45:00;42.55;;;29.73;;
57071;SDS011;42956;51.366;11.298;2024-03-06T14:47:34;46.92;;;30.98;;
57071;SDS011;42956;51.366;11.298;2024-03-06T14:50:05;51.38;;;31.23;;
57071;SDS011;42956;51.366;11.298;2024-03-06T14:52:35;45.70;;;32.42;;
57071;SDS011;42956;51.366;11.298;2024-03-06T14:55:06;50.45;;;33.03;;